Time;durP1;ratioP1;P1;durP2;ratioP2;P2;SDS_P1;SDS_P2;PMS_P1;PMS_P2;Temp;Humidity;BMP_temperature;BMP_pressure;BME280_temperature;BME280_humidity;BME280_pressure;Samples;Min_cycle;Max_cycle;Signal;HPM_P1;HPM_P2
2024/01/16 00:02:21;;;;;;;5.70;1.83;;;;;;;;;;5100178;28;20478;-78
2024/01/16 00:04:47;;;;;;;7.73;2.60;;;;;;;;;;5080246;28;20526;-78
2024/01/16 00:07:15;;;;;;;4.83;2.87;;;;;;;;;;5080049;28;20529;-78
2024/01/16 00:09:41;;;;;;;5.87;3.10;;;;;;;;;;5097783;28;20549;-78
2024/01/16 00:12:08;;;;;;;8.50;5.00;;;;;;;;;;5099891;28;20528;-78
2024/01/16 00:14:35;;;;;;;12.90;4.70;;;;;;;;;;5082727;28;20554;-78
2024/01/16 00:17:02;;;;;;;12.43;6.40;;;;;;;;;;5080151;28;20507;-78
2024/01/16 00:19:28;;;;;;;9.60;6.53;;;;;;;;;;5096228;28;20904;-78
2024/01/16 00:21:55;;;;;;;8.10;4.07;;;;;;;;;;5100125;28;20450;-78
2024/01/16 00:24:23;;;;;;;4.13;3.30;;;;;;;;;;5084395;28;20558;-79
2024/01/16 00:26:50;;;;;;;4.60;3.77;;;;;;;;;;5079247;28;20477;-78
2024/01/16 00:29:17;;;;;;;17.03;3.73;;;;;;;;;;5093677;28;20493;-78
2024/01/16 00:31:43;;;;;;;2.17;1.70;;;;;;;;;;5098727;28;20529;-78
2024/01/16 00:34:10;;;;;;;2.70;1.47;;;;;;;;;;5084439;28;20473;-79
2024/01/16 00:36:37;;;;;;;7.33;1.63;;;;;;;;;;5078160;28;20929;-79
2024/01/16 00:39:04;;;;;;;3.53;1.37;;;;;;;;;;5091191;28;21108;-78
2024/01/16 00:41:32;;;;;;;1.60;1.43;;;;;;;;;;5098261;28;20517;-78
2024/01/16 00:43:58;;;;;;;2.87;1.40;;;;;;;;;;5084231;28;20467;-79
2024/01/16 00:46:25;;;;;;;4.87;1.80;;;;;;;;;;5078782;28;20431;-79
2024/01/16 00:48:51;;;;;;;4.03;1.30;;;;;;;;;;5089015;28;20549;-79
2024/01/16 00:51:18;;;;;;;2.70;2.10;;;;;;;;;;5098870;28;20519;-79
2024/01/16 00:53:44;;;;;;;3.30;2.17;;;;;;;;;;5087989;28;20903;-78
2024/01/16 00:56:12;;;;;;;2.50;2.23;;;;;;;;;;5078419;28;20538;-79
2024/01/16 00:58:40;;;;;;;5.00;2.90;;;;;;;;;;5086898;28;20871;-80
2024/01/16 01:01:06;;;;;;;3.03;2.57;;;;;;;;;;5099321;28;20529;-78
2024/01/16 01:03:33;;;;;;;2.40;2.00;;;;;;;;;;5090087;28;20546;-78
2024/01/16 01:06:00;;;;;;;3.20;2.50;;;;;;;;;;5078750;28;20462;-78
2024/01/16 01:08:27;;;;;;;6.20;4.40;;;;;;;;;;5086331;28;20557;-79
2024/01/16 01:10:53;;;;;;;4.70;2.97;;;;;;;;;;5099753;28;21011;-78
2024/01/16 01:13:20;;;;;;;4.87;2.40;;;;;;;;;;5092552;28;20550;-79
2024/01/16 01:15:48;;;;;;;7.90;3.00;;;;;;;;;;5079008;28;20891;-79
2024/01/16 01:18:16;;;;;;;4.10;1.70;;;;;;;;;;5085249;28;20466;-78
2024/01/16 01:20:42;;;;;;;2.60;1.37;;;;;;;;;;5099947;28;20441;-78
2024/01/16 01:23:09;;;;;;;2.63;1.90;;;;;;;;;;5093776;28;20531;-78
2024/01/16 01:25:35;;;;;;;4.33;1.70;;;;;;;;;;5079155;28;20539;-79
2024/01/16 01:28:02;;;;;;;10.13;2.97;;;;;;;;;;5082809;28;21046;-78
2024/01/16 01:30:28;;;;;;;10.07;4.50;;;;;;;;;;5099461;28;20509;-78
2024/01/16 01:32:57;;;;;;;1.50;1.40;;;;;;;;;;5095721;28;20541;-78
2024/01/16 01:35:26;;;;;;;5.13;3.13;;;;;;;;;;5078890;28;20505;-78
2024/01/16 01:37:54;;;;;;;27.73;13.77;;;;;;;;;;5081752;28;20462;-78
2024/01/16 01:40:20;;;;;;;6.40;3.17;;;;;;;;;;5099210;28;20525;-79
2024/01/16 01:42:48;;;;;;;2.67;1.30;;;;;;;;;;5096613;28;20564;-78
2024/01/16 01:45:15;;;;;;;4.33;1.70;;;;;;;;;;5077823;28;20533;-79
2024/01/16 01:47:42;;;;;;;2.90;2.10;;;;;;;;;;5079967;28;20526;-80
2024/01/16 01:50:10;;;;;;;2.47;1.23;;;;;;;;;;5098878;28;20434;-78
2024/01/16 01:52:37;;;;;;;3.70;1.70;;;;;;;;;;5098411;28;20883;-79
2024/01/16 01:55:05;;;;;;;2.40;1.80;;;;;;;;;;5079346;28;20538;-79
2024/01/16 01:57:34;;;;;;;1.03;0.80;;;;;;;;;;5079722;28;20466;-79
2024/01/16 02:00:00;;;;;;;4.57;1.30;;;;;;;;;;5101233;28;20537;-78
2024/01/16 02:02:28;;;;;;;2.30;0.57;;;;;;;;;;5099787;28;20516;-78
2024/01/16 02:04:56;;;;;;;1.07;0.50;;;;;;;;;;5081168;28;20494;-79
2024/01/16 02:07:24;;;;;;;3.57;0.70;;;;;;;;;;5081730;28;20499;-78
2024/01/16 02:09:51;;;;;;;1.20;1.00;;;;;;;;;;5100427;28;20474;-78
2024/01/16 02:12:18;;;;;;;1.40;0.90;;;;;;;;;;5102157;28;20517;-78
2024/01/16 02:14:44;;;;;;;3.30;0.80;;;;;;;;;;5082718;28;20558;-78
2024/01/16 02:17:11;;;;;;;2.17;1.23;;;;;;;;;;5081688;28;20439;-78
2024/01/16 02:19:37;;;;;;;1.53;0.80;;;;;;;;;;5099230;28;20565;-78
2024/01/16 02:22:05;;;;;;;1.60;0.77;;;;;;;;;;5101359;28;20439;-78
2024/01/16 02:24:33;;;;;;;4.33;0.70;;;;;;;;;;5085251;28;20534;-79
2024/01/16 02:27:00;;;;;;;2.23;0.83;;;;;;;;;;5082149;28;20538;-78
2024/01/16 02:29:26;;;;;;;1.57;1.40;;;;;;;;;;5098603;28;20502;-78
2024/01/16 02:31:53;;;;;;;2.30;1.10;;;;;;;;;;5102459;28;20540;-78
2024/01/16 02:34:19;;;;;;;1.10;1.00;;;;;;;;;;5087689;28;20479;-79
2024/01/16 02:36:46;;;;;;;2.73;1.70;;;;;;;;;;5083503;28;20542;-78
2024/01/16 02:39:12;;;;;;;1.97;1.33;;;;;;;;;;5095744;28;20470;-78
2024/01/16 02:41:40;;;;;;;2.00;1.33;;;;;;;;;;5084661;28;20438;-79
2024/01/16 02:44:07;;;;;;;1.33;1.23;;;;;;;;;;5088248;28;20471;-78
2024/01/16 02:46:34;;;;;;;4.40;1.97;;;;;;;;;;5083082;28;20507;-78
2024/01/16 02:49:01;;;;;;;1.87;1.30;;;;;;;;;;5095984;28;20470;-78
2024/01/16 02:51:27;;;;;;;6.40;1.50;;;;;;;;;;5107674;28;20445;-78
2024/01/16 02:53:54;;;;;;;2.73;1.60;;;;;;;;;;5095404;28;20913;-78
2024/01/16 02:56:23;;;;;;;3.23;2.53;;;;;;;;;;5087115;28;20518;-78
2024/01/16 02:58:53;;;;;;;3.13;1.60;;;;;;;;;;5098205;28;20466;-78
2024/01/16 03:01:19;;;;;;;1.70;1.60;;;;;;;;;;5107389;28;20872;-78
2024/01/16 03:03:46;;;;;;;4.77;2.07;;;;;;;;;;5096801;28;20553;-78
2024/01/16 03:06:22;;;;;;;3.57;1.33;;;;;;;;;;5087295;28;20894;-78
2024/01/16 03:08:49;;;;;;;4.00;2.70;;;;;;;;;;5097631;28;20529;-78
2024/01/16 03:11:17;;;;;;;2.70;2.50;;;;;;;;;;5106754;28;20510;-78
2024/01/16 03:13:45;;;;;;;4.30;1.70;;;;;;;;;;5096638;28;20467;-78
2024/01/16 03:16:12;;;;;;;4.37;2.10;;;;;;;;;;5086318;28;20482;-78
2024/01/16 03:18:39;;;;;;;4.10;2.33;;;;;;;;;;5095342;28;20462;-78
2024/01/16 03:21:07;;;;;;;3.67;2.10;;;;;;;;;;5106551;28;20880;-78
2024/01/16 03:23:33;;;;;;;3.37;2.13;;;;;;;;;;5097416;28;20470;-78
2024/01/16 03:26:03;;;;;;;6.23;2.47;;;;;;;;;;5086629;28;21023;-78
2024/01/16 03:28:30;;;;;;;9.10;1.97;;;;;;;;;;5094493;28;20481;-78
2024/01/16 03:30:58;;;;;;;6.50;1.93;;;;;;;;;;5107203;28;20517;-78
2024/01/16 03:33:26;;;;;;;2.63;1.37;;;;;;;;;;5100142;28;20451;-78
2024/01/16 03:35:54;;;;;;;2.40;1.70;;;;;;;;;;5087178;28;20534;-77
2024/01/16 03:38:20;;;;;;;5.03;2.23;;;;;;;;;;5094012;28;20561;-78
2024/01/16 03:40:47;;;;;;;2.67;1.57;;;;;;;;;;5107866;28;20466;-78
2024/01/16 03:43:13;;;;;;;6.60;2.03;;;;;;;;;;5102064;28;20534;-78
2024/01/16 03:45:44;;;;;;;7.03;1.20;;;;;;;;;;5087265;28;20482;-78
2024/01/16 03:48:12;;;;;;;5.33;0.90;;;;;;;;;;5091842;28;20466;-77
2024/01/16 03:50:43;;;;;;;3.03;0.70;;;;;;;;;;5108170;28;20468;-77
2024/01/16 03:53:10;;;;;;;3.40;1.43;;;;;;;;;;5103710;28;20459;-77
2024/01/16 03:55:37;;;;;;;4.17;1.07;;;;;;;;;;5086857;28;20539;-78
2024/01/16 03:58:03;;;;;;;6.20;1.60;;;;;;;;;;5090497;28;20492;-78
2024/01/16 04:00:30;;;;;;;5.03;1.27;;;;;;;;;;5107363;28;20485;-77
2024/01/16 04:03:00;;;;;;;4.30;1.03;;;;;;;;;;5104941;28;20493;-77
2024/01/16 04:05:26;;;;;;;5.50;1.30;;;;;;;;;;5087613;28;20526;-77
2024/01/16 04:07:54;;;;;;;12.67;2.17;;;;;;;;;;5088630;28;20455;-78
2024/01/16 04:10:21;;;;;;;7.03;0.90;;;;;;;;;;5107945;28;20445;-77
2024/01/16 04:12:47;;;;;;;6.23;1.10;;;;;;;;;;5104756;28;20497;-77
2024/01/16 04:15:14;;;;;;;5.43;1.17;;;;;;;;;;5086187;28;20522;-78
2024/01/16 04:17:41;;;;;;;3.77;1.27;;;;;;;;;;5087263;28;20533;-78
2024/01/16 04:20:09;;;;;;;3.30;1.03;;;;;;;;;;5106716;28;20502;-77
2024/01/16 04:22:36;;;;;;;15.53;3.03;;;;;;;;;;5106660;28;20445;-77
2024/01/16 04:25:04;;;;;;;12.60;1.53;;;;;;;;;;5086170;28;20490;-77
2024/01/16 04:27:31;;;;;;;3.03;0.93;;;;;;;;;;5086485;28;20443;-78
2024/01/16 04:29:57;;;;;;;5.57;1.03;;;;;;;;;;5106206;28;20541;-78
2024/01/16 04:32:24;;;;;;;17.40;1.50;;;;;;;;;;5105735;28;20498;-78
2024/01/16 04:34:51;;;;;;;4.40;1.40;;;;;;;;;;5085865;28;21087;-78
2024/01/16 04:37:17;;;;;;;3.63;1.27;;;;;;;;;;5086463;28;20845;-77
2024/01/16 04:39:44;;;;;;;7.53;1.47;;;;;;;;;;5104534;28;20485;-78
2024/01/16 04:42:12;;;;;;;6.43;1.30;;;;;;;;;;5105991;28;20473;-79
2024/01/16 04:44:38;;;;;;;5.20;1.20;;;;;;;;;;5087155;28;20881;-78
2024/01/16 04:47:05;;;;;;;7.80;1.50;;;;;;;;;;5085226;28;20526;-77
2024/01/16 04:49:32;;;;;;;4.40;1.17;;;;;;;;;;5103203;28;20497;-78
2024/01/16 04:51:58;;;;;;;6.60;1.27;;;;;;;;;;5105928;28;20530;-77
2024/01/16 04:54:25;;;;;;;2.23;1.17;;;;;;;;;;5089921;28;20551;-78
2024/01/16 04:56:51;;;;;;;3.47;1.30;;;;;;;;;;5085477;28;20546;-80
2024/01/16 04:59:19;;;;;;;8.93;1.50;;;;;;;;;;5097564;28;20537;-79
2024/01/16 05:01:46;;;;;;;2.47;1.13;;;;;;;;;;5105806;28;20512;-78
2024/01/16 05:04:12;;;;;;;2.53;1.00;;;;;;;;;;5089735;28;20539;-79
2024/01/16 05:06:39;;;;;;;3.43;1.97;;;;;;;;;;5084089;28;20447;-79
2024/01/16 05:09:05;;;;;;;1.90;1.30;;;;;;;;;;5097532;28;20529;-79
2024/01/16 05:11:31;;;;;;;3.33;1.03;;;;;;;;;;5102093;28;20445;-79
2024/01/16 05:13:58;;;;;;;2.90;1.40;;;;;;;;;;5092577;28;20541;-79
2024/01/16 05:16:26;;;;;;;11.17;1.47;;;;;;;;;;5084448;28;20438;-79
2024/01/16 05:18:54;;;;;;;8.33;1.90;;;;;;;;;;5095139;28;20477;-79
2024/01/16 05:21:20;;;;;;;12.53;2.60;;;;;;;;;;5104435;28;20506;-79
2024/01/16 05:23:47;;;;;;;3.40;1.10;;;;;;;;;;5094164;28;20562;-79
2024/01/16 05:26:13;;;;;;;3.20;1.27;;;;;;;;;;5084693;28;20540;-79
2024/01/16 05:28:40;;;;;;;8.60;1.43;;;;;;;;;;5093485;28;20529;-79
2024/01/16 05:31:07;;;;;;;1.80;1.17;;;;;;;;;;5102767;28;20438;-79
2024/01/16 05:33:35;;;;;;;5.23;1.63;;;;;;;;;;5093964;28;20491;-79
2024/01/16 05:36:02;;;;;;;4.50;1.20;;;;;;;;;;5082926;28;21059;-79
2024/01/16 05:38:29;;;;;;;7.10;1.80;;;;;;;;;;5091937;28;20474;-79
2024/01/16 05:40:55;;;;;;;10.47;1.80;;;;;;;;;;5105203;28;20577;-79
2024/01/16 05:43:22;;;;;;;12.20;1.47;;;;;;;;;;5096259;28;20530;-79
2024/01/16 05:45:50;;;;;;;5.60;1.20;;;;;;;;;;5065793;28;20462;-79
2024/01/16 05:48:16;;;;;;;4.70;1.70;;;;;;;;;;5091092;28;20560;-79
2024/01/16 05:50:44;;;;;;;2.97;1.00;;;;;;;;;;5103618;28;20465;-79
2024/01/16 05:53:11;;;;;;;4.07;1.40;;;;;;;;;;5097345;28;20539;-79
2024/01/16 05:55:37;;;;;;;2.57;1.53;;;;;;;;;;5084387;28;20466;-79
2024/01/16 05:58:04;;;;;;;5.23;1.47;;;;;;;;;;5088871;28;20540;-79
2024/01/16 06:00:30;;;;;;;3.33;1.30;;;;;;;;;;5103412;28;20897;-79
2024/01/16 06:02:58;;;;;;;4.70;1.43;;;;;;;;;;5097882;28;20549;-80
2024/01/16 06:05:25;;;;;;;5.67;1.70;;;;;;;;;;5082513;28;20518;-80
2024/01/16 06:07:54;;;;;;;3.20;1.00;;;;;;;;;;5085255;28;20539;-79
2024/01/16 06:10:20;;;;;;;6.67;1.80;;;;;;;;;;5103101;28;20975;-79
2024/01/16 06:12:47;;;;;;;6.60;1.37;;;;;;;;;;5099437;28;20475;-80
2024/01/16 06:15:13;;;;;;;3.97;1.53;;;;;;;;;;5082914;28;20516;-79
2024/01/16 06:17:42;;;;;;;2.10;1.47;;;;;;;;;;5083616;28;20529;-80
2024/01/16 06:20:10;;;;;;;10.90;2.40;;;;;;;;;;5102408;28;20533;-79
2024/01/16 06:22:36;;;;;;;6.70;1.27;;;;;;;;;;5103278;28;20540;-79
2024/01/16 06:25:05;;;;;;;3.77;1.60;;;;;;;;;;5087775;28;20574;-80
2024/01/16 06:27:32;;;;;;;4.53;1.80;;;;;;;;;;5089197;28;20466;-79
2024/01/16 06:29:59;;;;;;;3.27;1.70;;;;;;;;;;5087458;28;20954;-79
2024/01/16 06:32:25;;;;;;;12.47;2.23;;;;;;;;;;5087157;28;20466;-80
2024/01/16 06:34:52;;;;;;;7.43;1.80;;;;;;;;;;5106612;28;20550;-79
2024/01/16 06:37:18;;;;;;;7.40;1.47;;;;;;;;;;5108267;28;20498;-80
2024/01/16 06:39:45;;;;;;;4.77;2.00;;;;;;;;;;5089288;28;20538;-79
2024/01/16 06:42:13;;;;;;;4.73;1.70;;;;;;;;;;5087822;28;20470;-79
2024/01/16 06:44:39;;;;;;;2.10;1.50;;;;;;;;;;5104622;28;20500;-79
2024/01/16 06:47:06;;;;;;;11.97;2.87;;;;;;;;;;5107956;28;20465;-78
2024/01/16 06:49:32;;;;;;;12.60;2.17;;;;;;;;;;5090644;28;20530;-78
2024/01/16 06:52:00;;;;;;;10.87;3.20;;;;;;;;;;5087538;28;20502;-79
2024/01/16 06:54:26;;;;;;;6.43;2.10;;;;;;;;;;5103507;28;20556;-79
2024/01/16 06:56:53;;;;;;;4.00;2.20;;;;;;;;;;5109131;28;20532;-79
2024/01/16 06:59:25;;;;;;;2.40;1.60;;;;;;;;;;5090405;28;20550;-79
2024/01/16 07:01:51;;;;;;;5.73;2.30;;;;;;;;;;5087764;28;20450;-78
2024/01/16 07:04:18;;;;;;;9.30;2.07;;;;;;;;;;5101293;28;21066;-79
2024/01/16 07:06:47;;;;;;;4.57;2.10;;;;;;;;;;5108055;28;20462;-79
2024/01/16 07:09:16;;;;;;;7.73;2.40;;;;;;;;;;5093703;28;20486;-79
2024/01/16 07:11:42;;;;;;;2.73;1.77;;;;;;;;;;5087583;28;20443;-79
2024/01/16 07:14:11;;;;;;;9.33;3.03;;;;;;;;;;5100502;28;20886;-79
2024/01/16 07:16:39;;;;;;;15.77;2.20;;;;;;;;;;5107989;28;20454;-79
2024/01/16 07:19:05;;;;;;;2.27;1.30;;;;;;;;;;5108758;28;20912;-79
2024/01/16 07:21:33;;;;;;;3.80;2.10;;;;;;;;;;5108305;28;20532;-79
2024/01/16 07:24:00;;;;;;;10.00;1.90;;;;;;;;;;5094495;28;20562;-79
2024/01/16 07:26:27;;;;;;;11.80;3.50;;;;;;;;;;5087957;28;20445;-79
2024/01/16 07:28:53;;;;;;;4.70;2.10;;;;;;;;;;5099076;28;20561;-78
2024/01/16 07:31:23;;;;;;;7.53;2.70;;;;;;;;;;5106486;28;20517;-79
2024/01/16 07:33:51;;;;;;;6.33;1.70;;;;;;;;;;5095799;28;20471;-79
2024/01/16 07:36:17;;;;;;;6.33;2.43;;;;;;;;;;5088192;28;20476;-78
2024/01/16 07:38:44;;;;;;;3.83;1.93;;;;;;;;;;5096490;28;20529;-79
2024/01/16 07:41:10;;;;;;;7.30;2.60;;;;;;;;;;5108933;28;21028;-78
2024/01/16 07:43:37;;;;;;;7.40;1.97;;;;;;;;;;5098939;28;20530;-78
2024/01/16 07:46:04;;;;;;;6.30;1.70;;;;;;;;;;5087931;28;21067;-79
2024/01/16 07:48:30;;;;;;;3.57;1.77;;;;;;;;;;5095807;28;20465;-79
2024/01/16 07:50:59;;;;;;;9.10;2.73;;;;;;;;;;5108821;28;20473;-79
2024/01/16 07:53:27;;;;;;;6.00;2.57;;;;;;;;;;5100305;28;20486;-79
2024/01/16 07:55:54;;;;;;;9.30;1.97;;;;;;;;;;5086662;28;20937;-79
2024/01/16 07:58:20;;;;;;;3.70;1.40;;;;;;;;;;5094494;28;20462;-79
2024/01/16 08:00:47;;;;;;;4.93;2.57;;;;;;;;;;5108507;28;20589;-79
2024/01/16 08:03:14;;;;;;;9.17;1.90;;;;;;;;;;5101789;28;20542;-78
2024/01/16 08:05:42;;;;;;;5.90;1.83;;;;;;;;;;5086499;28;20498;-77
2024/01/16 08:08:11;;;;;;;7.80;1.87;;;;;;;;;;5089452;28;20537;-78
2024/01/16 08:10:38;;;;;;;1.90;1.57;;;;;;;;;;5107385;28;20484;-79
2024/01/16 08:13:04;;;;;;;4.70;1.87;;;;;;;;;;5099007;28;20463;-80
2024/01/16 08:15:31;;;;;;;3.73;1.43;;;;;;;;;;5087160;28;20524;-79
2024/01/16 08:17:57;;;;;;;4.47;2.00;;;;;;;;;;5089513;28;20493;-79
2024/01/16 08:20:24;;;;;;;8.30;2.30;;;;;;;;;;5107609;28;20541;-79
2024/01/16 08:22:51;;;;;;;6.03;1.80;;;;;;;;;;5105087;28;20466;-78
2024/01/16 08:25:19;;;;;;;5.43;1.97;;;;;;;;;;5087395;28;20494;-79
2024/01/16 08:27:45;;;;;;;5.90;1.87;;;;;;;;;;5086100;28;20615;-80
2024/01/16 08:30:13;;;;;;;3.70;1.40;;;;;;;;;;5106221;28;20512;-79
2024/01/16 08:32:39;;;;;;;5.60;2.00;;;;;;;;;;5104335;28;20441;-80
2024/01/16 08:35:06;;;;;;;4.47;2.00;;;;;;;;;;5085360;28;20463;-79
2024/01/16 08:37:34;;;;;;;3.80;1.47;;;;;;;;;;5086182;28;20967;-78
2024/01/16 08:40:00;;;;;;;3.80;1.83;;;;;;;;;;5106000;28;20529;-79
2024/01/16 08:42:28;;;;;;;3.90;2.70;;;;;;;;;;5107163;28;20501;-79
2024/01/16 08:44:55;;;;;;;10.73;2.10;;;;;;;;;;5086053;28;20570;-79
2024/01/16 08:47:22;;;;;;;5.93;2.30;;;;;;;;;;5085054;28;20502;-79
2024/01/16 08:49:48;;;;;;;7.37;2.97;;;;;;;;;;5105015;28;20486;-79
2024/01/16 08:52:15;;;;;;;7.80;3.37;;;;;;;;;;5105997;28;20509;-79
2024/01/16 08:54:42;;;;;;;6.90;2.63;;;;;;;;;;5085977;28;20479;-79
2024/01/16 08:57:10;;;;;;;4.90;2.20;;;;;;;;;;5085114;28;20459;-79
2024/01/16 08:59:39;;;;;;;5.00;1.90;;;;;;;;;;5101185;28;20474;-79
2024/01/16 09:02:05;;;;;;;3.47;2.10;;;;;;;;;;5104793;28;20505;-80
2024/01/16 09:04:32;;;;;;;5.63;2.20;;;;;;;;;;5087420;28;20478;-79
2024/01/16 09:06:59;;;;;;;10.80;2.30;;;;;;;;;;5085919;28;20465;-79
2024/01/16 09:09:26;;;;;;;8.57;1.60;;;;;;;;;;5101435;28;20560;-79
2024/01/16 09:11:52;;;;;;;3.30;2.20;;;;;;;;;;5106151;28;20468;-80
2024/01/16 09:14:20;;;;;;;4.20;2.50;;;;;;;;;;5090138;28;20530;-79
2024/01/16 09:16:48;;;;;;;5.43;1.53;;;;;;;;;;5083924;28;20461;-79
2024/01/16 09:19:14;;;;;;;6.03;1.93;;;;;;;;;;5097027;28;21019;-79
2024/01/16 09:21:41;;;;;;;2.53;2.00;;;;;;;;;;5105108;28;20438;-79
2024/01/16 09:24:08;;;;;;;5.57;2.53;;;;;;;;;;5091857;28;20475;-80
2024/01/16 09:26:35;;;;;;;6.73;2.00;;;;;;;;;;5085532;28;21000;-79
2024/01/16 09:29:01;;;;;;;5.83;2.27;;;;;;;;;;5097335;28;20462;-79
2024/01/16 09:31:28;;;;;;;5.13;1.80;;;;;;;;;;5104012;28;20520;-79
2024/01/16 09:33:56;;;;;;;3.73;2.23;;;;;;;;;;5091724;28;21064;-80
2024/01/16 09:36:25;;;;;;;4.63;1.83;;;;;;;;;;5084671;28;20495;-79
2024/01/16 09:38:52;;;;;;;17.13;2.20;;;;;;;;;;5095138;28;20804;-79
2024/01/16 09:41:19;;;;;;;5.27;3.90;;;;;;;;;;5103530;28;20509;-79
2024/01/16 09:43:47;;;;;;;8.50;2.80;;;;;;;;;;5094218;28;20550;-80
2024/01/16 09:46:17;;;;;;;4.00;2.10;;;;;;;;;;5084496;28;20942;-80
2024/01/16 09:48:45;;;;;;;5.80;2.03;;;;;;;;;;5094139;28;21002;-78
2024/01/16 09:51:14;;;;;;;8.10;2.30;;;;;;;;;;5104667;28;20448;-80
2024/01/16 09:53:41;;;;;;;3.30;2.20;;;;;;;;;;5093407;28;20490;-80
2024/01/16 09:56:10;;;;;;;16.93;3.67;;;;;;;;;;5082266;28;20493;-81
2024/01/16 09:58:38;;;;;;;6.40;2.10;;;;;;;;;;5090203;28;20466;-79
2024/01/16 10:01:05;;;;;;;4.27;2.83;;;;;;;;;;5101486;28;20456;-80
2024/01/16 10:03:32;;;;;;;9.50;3.20;;;;;;;;;;5092228;28;20463;-79
2024/01/16 10:05:59;;;;;;;4.07;2.90;;;;;;;;;;5079469;28;20485;-80
2024/01/16 10:08:28;;;;;;;4.27;2.83;;;;;;;;;;5087446;28;20533;-80
2024/01/16 10:10:56;;;;;;;7.70;3.50;;;;;;;;;;5102049;28;20533;-79
2024/01/16 10:13:22;;;;;;;4.40;2.93;;;;;;;;;;5094820;28;20459;-78
2024/01/16 10:15:50;;;;;;;4.57;2.80;;;;;;;;;;5082073;28;20518;-80
2024/01/16 10:18:24;;;;;;;9.43;3.50;;;;;;;;;;5085453;28;20534;-81
2024/01/16 10:20:52;;;;;;;4.10;2.40;;;;;;;;;;5101630;28;20442;-80
2024/01/16 10:23:23;;;;;;;6.43;2.70;;;;;;;;;;5093839;28;20482;-81
2024/01/16 10:28:47;;;;;;;5.67;3.33;;;;;;;;;;5108941;27;21015;-78
2024/01/16 10:31:15;;;;;;;8.53;3.63;;;;;;;;;;5099630;28;20521;-78
2024/01/16 10:33:41;;;;;;;6.77;2.90;;;;;;;;;;5096930;28;20470;-78
2024/01/16 10:36:12;;;;;;;13.00;3.03;;;;;;;;;;5097198;28;20553;-78
2024/01/16 10:38:39;;;;;;;5.63;3.07;;;;;;;;;;5086590;28;20471;-78
2024/01/16 10:41:13;;;;;;;8.90;3.27;;;;;;;;;;5077595;28;20442;-78
2024/01/16 10:43:40;;;;;;;7.03;3.70;;;;;;;;;;5077249;28;20471;-78
2024/01/16 10:46:12;;;;;;;8.10;4.43;;;;;;;;;;5077225;28;20485;-78
2024/01/16 10:48:39;;;;;;;8.70;3.13;;;;;;;;;;5076226;28;20471;-79
2024/01/16 10:51:07;;;;;;;5.03;3.10;;;;;;;;;;5076230;28;20498;-78
2024/01/16 10:53:34;;;;;;;6.50;3.50;;;;;;;;;;5076275;28;20554;-78
2024/01/16 10:56:02;;;;;;;6.17;3.30;;;;;;;;;;5075493;28;20884;-78
2024/01/16 10:58:31;;;;;;;6.83;3.00;;;;;;;;;;5075955;28;20553;-78
2024/01/16 11:00:58;;;;;;;6.93;3.60;;;;;;;;;;5075555;28;20440;-78
2024/01/16 11:03:30;;;;;;;6.17;3.40;;;;;;;;;;5076061;28;20541;-78
2024/01/16 11:06:00;;;;;;;9.10;3.87;;;;;;;;;;5074942;28;20482;-81
2024/01/16 11:08:30;;;;;;;8.47;3.60;;;;;;;;;;5074814;28;20895;-78
2024/01/16 11:10:57;;;;;;;6.00;3.33;;;;;;;;;;5074053;28;20901;-79
2024/01/16 11:13:24;;;;;;;6.53;3.97;;;;;;;;;;5074578;28;20550;-78
2024/01/16 11:15:51;;;;;;;3.70;3.10;;;;;;;;;;5075599;28;20545;-79
2024/01/16 11:18:18;;;;;;;4.10;3.13;;;;;;;;;;5073329;28;20549;-79
2024/01/16 11:20:47;;;;;;;8.90;3.73;;;;;;;;;;5075149;28;20521;-79
2024/01/16 11:23:14;;;;;;;7.83;3.63;;;;;;;;;;5071601;28;20473;-79
2024/01/16 11:25:44;;;;;;;6.07;3.40;;;;;;;;;;5073581;28;20549;-78
2024/01/16 11:28:11;;;;;;;8.93;4.30;;;;;;;;;;5072962;28;20471;-79
2024/01/16 11:30:38;;;;;;;10.63;3.60;;;;;;;;;;5072552;28;20438;-79
2024/01/16 11:33:10;;;;;;;4.67;3.50;;;;;;;;;;5071912;28;20550;-79
2024/01/16 11:35:38;;;;;;;4.57;3.80;;;;;;;;;;5072411;28;20473;-79
2024/01/16 11:38:07;;;;;;;5.47;3.50;;;;;;;;;;5067926;28;20478;-79
2024/01/16 11:40:33;;;;;;;6.37;4.00;;;;;;;;;;5059398;28;20789;-79
2024/01/16 11:43:20;;;;;;;7.90;4.67;;;;;;;;;;5058415;28;20463;-79
2024/01/16 11:45:50;;;;;;;7.20;3.30;;;;;;;;;;5058235;28;20554;-79
2024/01/16 11:48:17;;;;;;;5.37;3.40;;;;;;;;;;5058434;28;20488;-79
2024/01/16 11:50:44;;;;;;;4.10;3.70;;;;;;;;;;5059269;28;20518;-79
2024/01/16 11:53:13;;;;;;;10.20;4.40;;;;;;;;;;5058314;28;20474;-79
2024/01/16 11:55:48;;;;;;;6.90;3.87;;;;;;;;;;5057733;28;20989;-79
2024/01/16 11:58:28;;;;;;;4.90;3.40;;;;;;;;;;5058453;28;20550;-79
2024/01/16 12:00:57;;;;;;;9.23;3.63;;;;;;;;;;5059288;28;20500;-79
2024/01/16 12:03:24;;;;;;;6.23;4.07;;;;;;;;;;5058360;28;20476;-81
2024/01/16 12:05:56;;;;;;;9.93;4.47;;;;;;;;;;5058947;28;20460;-79
2024/01/16 12:08:24;;;;;;;8.77;3.77;;;;;;;;;;5058629;28;20475;-79
2024/01/16 12:10:50;;;;;;;7.63;4.30;;;;;;;;;;5058854;28;20447;-79
2024/01/16 12:13:17;;;;;;;11.40;4.10;;;;;;;;;;5058308;28;21073;-79
2024/01/16 12:15:46;;;;;;;8.53;3.83;;;;;;;;;;5058505;28;20484;-81
2024/01/16 12:18:18;;;;;;;3.93;3.50;;;;;;;;;;5056065;28;20471;-81
2024/01/16 12:20:48;;;;;;;8.67;3.93;;;;;;;;;;5057818;28;20603;-78
2024/01/16 12:23:15;;;;;;;7.70;4.10;;;;;;;;;;5057061;28;20475;-79
2024/01/16 12:25:43;;;;;;;10.77;4.90;;;;;;;;;;5057860;28;20463;-81
2024/01/16 12:28:11;;;;;;;6.90;4.10;;;;;;;;;;5057103;28;20549;-81
2024/01/16 12:30:39;;;;;;;6.27;3.60;;;;;;;;;;5058782;28;20443;-79
2024/01/16 12:33:06;;;;;;;15.10;5.23;;;;;;;;;;5056005;28;20553;-81
2024/01/16 12:35:34;;;;;;;6.93;3.70;;;;;;;;;;5057568;28;20463;-81
2024/01/16 12:38:02;;;;;;;5.30;3.87;;;;;;;;;;5057351;28;20472;-79
2024/01/16 12:40:29;;;;;;;8.87;3.93;;;;;;;;;;5057118;28;20815;-81
2024/01/16 12:43:00;;;;;;;9.10;4.67;;;;;;;;;;5057320;28;20543;-80
2024/01/16 12:45:28;;;;;;;6.57;4.43;;;;;;;;;;5056986;28;20452;-80
2024/01/16 12:47:57;;;;;;;7.17;4.30;;;;;;;;;;5056645;28;20966;-81
2024/01/16 12:50:24;;;;;;;4.87;4.10;;;;;;;;;;5055654;28;20551;-81
2024/01/16 12:52:51;;;;;;;7.03;5.20;;;;;;;;;;5055009;28;20440;-81
2024/01/16 12:55:18;;;;;;;12.37;5.20;;;;;;;;;;5056723;28;20460;-81
2024/01/16 12:57:45;;;;;;;7.60;4.60;;;;;;;;;;5056333;28;20444;-81
2024/01/16 13:00:26;;;;;;;7.37;5.07;;;;;;;;;;5057381;28;20439;-80
2024/01/16 13:02:57;;;;;;;6.77;4.30;;;;;;;;;;5055817;28;20992;-80
2024/01/16 13:05:25;;;;;;;10.03;5.27;;;;;;;;;;5056189;28;20459;-81
2024/01/16 13:08:00;;;;;;;11.43;5.67;;;;;;;;;;5054844;28;20852;-80
2024/01/16 13:10:26;;;;;;;15.90;5.87;;;;;;;;;;5056003;28;20420;-81
2024/01/16 13:12:54;;;;;;;12.33;6.63;;;;;;;;;;5055188;28;20459;-80
2024/01/16 13:15:20;;;;;;;19.00;6.90;;;;;;;;;;5055552;28;20458;-81
2024/01/16 13:17:48;;;;;;;9.10;6.00;;;;;;;;;;5054953;28;20542;-81
2024/01/16 13:20:16;;;;;;;10.70;6.90;;;;;;;;;;5055541;28;20432;-81
2024/01/16 13:22:42;;;;;;;13.47;6.97;;;;;;;;;;5054435;28;20450;-81
2024/01/16 13:25:09;;;;;;;17.60;7.50;;;;;;;;;;5053630;28;20488;-80
2024/01/16 13:27:36;;;;;;;14.70;6.30;;;;;;;;;;5056681;28;20490;-78
2024/01/16 13:30:04;;;;;;;10.97;6.20;;;;;;;;;;5054724;28;20439;-80
2024/01/16 13:32:30;;;;;;;10.23;6.53;;;;;;;;;;5055268;28;20448;-79
2024/01/16 13:34:58;;;;;;;12.27;6.93;;;;;;;;;;5054930;28;20478;-80
2024/01/16 13:37:27;;;;;;;14.03;6.60;;;;;;;;;;5055159;28;20503;-81
2024/01/16 13:39:53;;;;;;;15.23;7.90;;;;;;;;;;5054735;28;20554;-81
2024/01/16 13:42:20;;;;;;;10.73;7.10;;;;;;;;;;5055242;28;20458;-81
2024/01/16 13:44:47;;;;;;;16.67;7.43;;;;;;;;;;5053384;28;20989;-81
2024/01/16 13:47:13;;;;;;;13.40;7.90;;;;;;;;;;5054756;28;20942;-81
2024/01/16 13:49:41;;;;;;;12.47;7.83;;;;;;;;;;5053596;28;20471;-80
2024/01/16 13:52:09;;;;;;;12.93;6.57;;;;;;;;;;5054681;28;20447;-80
2024/01/16 13:54:37;;;;;;;12.70;7.80;;;;;;;;;;5054558;28;20559;-80
2024/01/16 13:57:04;;;;;;;12.90;8.40;;;;;;;;;;5054893;28;20526;-79
2024/01/16 13:59:31;;;;;;;9.30;6.00;;;;;;;;;;5054183;28;20472;-79
2024/01/16 14:01:57;;;;;;;9.73;6.37;;;;;;;;;;5054757;28;20438;-79
2024/01/16 14:04:24;;;;;;;13.40;6.73;;;;;;;;;;5054820;28;20559;-79
2024/01/16 14:06:50;;;;;;;14.23;7.00;;;;;;;;;;5054827;28;20436;-79
2024/01/16 14:09:20;;;;;;;8.40;6.00;;;;;;;;;;5055183;28;21020;-79
2024/01/16 14:11:46;;;;;;;10.23;6.60;;;;;;;;;;5055170;28;20514;-79
2024/01/16 14:14:15;;;;;;;21.37;7.60;;;;;;;;;;5054656;28;20474;-80
2024/01/16 14:16:41;;;;;;;11.10;6.70;;;;;;;;;;5055438;28;20443;-80
2024/01/16 14:19:10;;;;;;;18.90;7.80;;;;;;;;;;5055100;28;20903;-79
2024/01/16 14:21:36;;;;;;;9.43;6.07;;;;;;;;;;5055665;28;20815;-79
2024/01/16 14:24:05;;;;;;;26.57;6.60;;;;;;;;;;5055017;28;20476;-81
2024/01/16 14:26:33;;;;;;;9.80;5.73;;;;;;;;;;5054288;28;20440;-79
2024/01/16 14:29:01;;;;;;;9.83;5.60;;;;;;;;;;5054628;28;20989;-80
2024/01/16 14:31:28;;;;;;;11.10;6.23;;;;;;;;;;5053760;28;20440;-79
2024/01/16 14:33:55;;;;;;;11.40;5.77;;;;;;;;;;5053172;28;20467;-79
2024/01/16 14:36:22;;;;;;;8.83;6.00;;;;;;;;;;5055636;28;20440;-79
2024/01/16 14:38:51;;;;;;;8.27;6.60;;;;;;;;;;5053262;28;20826;-80
2024/01/16 14:41:17;;;;;;;8.83;6.17;;;;;;;;;;5055247;28;20526;-80
2024/01/16 14:43:45;;;;;;;10.17;5.07;;;;;;;;;;5054625;28;20555;-80
2024/01/16 14:46:12;;;;;;;15.37;6.00;;;;;;;;;;5054790;28;20870;-79